createdAt,value
2022-09-11T00:02:57.669Z,50.70
2022-09-11T00:06:08.178Z,50.70
2022-09-11T00:09:10.004Z,51.20
2022-09-11T00:12:12.470Z,50.70
2022-09-11T00:15:14.144Z,50.70
2022-09-11T00:18:21.649Z,50.70
2022-09-11T00:21:23.321Z,50.70
2022-09-11T00:24:25.091Z,50.70
2022-09-11T00:27:26.870Z,50.70
2022-09-11T00:30:29.205Z,50.70
2022-09-11T00:33:31.287Z,50.70
2022-09-11T00:36:33.041Z,50.70
2022-09-11T00:39:34.956Z,50.60
2022-09-11T00:42:36.795Z,50.70
2022-09-11T00:45:39.072Z,50.60
2022-09-11T00:48:40.794Z,50.70
2022-09-11T00:51:45.020Z,50.60
2022-09-11T00:54:51.605Z,50.70
2022-09-11T00:58:10.662Z,50.60
2022-09-11T01:01:14.802Z,50.70
2022-09-11T01:04:16.892Z,50.60
2022-09-11T01:07:20.973Z,50.60
2022-09-11T01:10:47.772Z,50.60
2022-09-11T01:14:08.970Z,50.60
2022-09-11T01:17:33.606Z,50.60
2022-09-11T01:21:07.548Z,50.60
2022-09-11T01:24:27.376Z,50.50
2022-09-11T01:27:43.106Z,50.60
2022-09-11T01:30:49.993Z,50.50
2022-09-11T01:33:59.626Z,50.60
2022-09-11T01:37:06.782Z,50.60
2022-09-11T01:40:17.642Z,50.60
2022-09-11T01:43:26.972Z,50.50
2022-09-11T01:46:35.167Z,50.50
2022-09-11T01:49:43.568Z,50.60
2022-09-11T01:52:50.540Z,50.50
2022-09-11T01:56:08.067Z,50.50
2022-09-11T01:59:16.398Z,50.50
2022-09-11T02:02:24.458Z,50.50
2022-09-11T02:05:35.082Z,50.50
2022-09-11T02:08:54.445Z,50.50
2022-09-11T02:12:03.093Z,50.50
2022-09-11T02:15:05.833Z,50.50
2022-09-11T02:18:39.318Z,50.50
2022-09-11T02:21:41.046Z,50.50
2022-09-11T02:24:43.035Z,50.50
2022-09-11T02:27:44.807Z,50.50
2022-09-11T02:30:46.761Z,50.40
2022-09-11T02:33:50.209Z,50.50
2022-09-11T02:37:12.242Z,50.50
2022-09-11T02:40:37.991Z,50.50
2022-09-11T02:44:11.367Z,50.40
2022-09-11T02:47:33.865Z,50.50
2022-09-11T02:50:59.406Z,50.50
2022-09-11T02:54:19.751Z,50.50
2022-09-11T02:57:34.745Z,50.50
2022-09-11T03:00:36.932Z,50.50
2022-09-11T03:03:41.182Z,50.40
2022-09-11T03:06:43.793Z,50.40
2022-09-11T03:09:45.531Z,50.50
2022-09-11T03:12:55.013Z,50.40
2022-09-11T03:15:56.835Z,50.40
2022-09-11T03:18:58.654Z,50.40
2022-09-11T03:22:00.421Z,50.50
2022-09-11T03:25:02.189Z,50.40
2022-09-11T03:28:05.890Z,50.40
2022-09-11T03:31:09.429Z,50.40
2022-09-11T03:34:11.715Z,50.40
2022-09-11T03:37:15.919Z,50.30
2022-09-11T03:40:17.921Z,50.30
2022-09-11T03:43:20.034Z,50.30
2022-09-11T03:46:21.961Z,50.50
2022-09-11T03:49:23.926Z,50.30
2022-09-11T03:52:25.807Z,51.00
2022-09-11T03:55:28.584Z,50.40
2022-09-11T03:58:30.310Z,50.40
2022-09-11T04:01:32.356Z,50.40
2022-09-11T04:04:34.408Z,50.40
2022-09-11T04:07:36.182Z,50.40
2022-09-11T04:10:38.429Z,50.40
2022-09-11T04:13:42.078Z,50.30
2022-09-11T04:16:47.813Z,50.30
2022-09-11T04:19:49.685Z,50.40
2022-09-11T04:22:52.480Z,50.30
2022-09-11T04:25:54.992Z,50.40
2022-09-11T04:28:58.762Z,50.30
2022-09-11T04:32:01.025Z,50.40
2022-09-11T04:35:06.366Z,50.40
2022-09-11T04:38:13.314Z,50.40
2022-09-11T04:41:16.504Z,50.30
2022-09-11T04:44:20.616Z,50.30
2022-09-11T04:47:22.405Z,50.30
2022-09-11T04:50:24.945Z,50.30
2022-09-11T04:53:44.917Z,50.30
2022-09-11T04:56:46.949Z,50.30
2022-09-11T04:59:50.694Z,50.30
2022-09-11T05:02:54.551Z,50.40
2022-09-11T05:05:56.567Z,50.40
2022-09-11T05:09:04.377Z,50.40
2022-09-11T05:12:08.687Z,50.40
2022-09-11T05:15:11.828Z,50.30
2022-09-11T05:18:13.641Z,50.30
2022-09-11T05:21:18.032Z,50.30
2022-09-11T05:24:21.022Z,50.30
2022-09-11T05:27:22.821Z,50.30
2022-09-11T05:30:24.699Z,50.30
2022-09-11T05:33:27.952Z,50.30
2022-09-11T05:36:33.362Z,50.30
2022-09-11T05:39:36.389Z,50.30
2022-09-11T05:42:38.959Z,50.30
2022-09-11T05:45:41.862Z,50.30
2022-09-11T05:48:43.796Z,50.30
2022-09-11T05:51:45.588Z,50.30
2022-09-11T05:54:47.354Z,50.40
2022-09-11T05:57:52.626Z,50.30
2022-09-11T06:01:03.555Z,50.30
2022-09-11T06:04:10.639Z,50.30
2022-09-11T06:07:13.738Z,50.30
2022-09-11T06:10:18.036Z,50.30
2022-09-11T06:13:19.784Z,50.20
2022-09-11T06:16:25.585Z,50.20
2022-09-11T06:19:31.126Z,50.30
2022-09-11T06:22:36.371Z,50.30
2022-09-11T06:25:38.830Z,50.30
2022-09-11T06:28:41.597Z,50.30
2022-09-11T06:31:47.665Z,50.30
2022-09-11T06:34:49.710Z,50.30
2022-09-11T06:37:51.514Z,50.20
2022-09-11T06:40:54.951Z,50.30
2022-09-11T06:43:56.922Z,50.30
2022-09-11T06:46:59.806Z,50.20
2022-09-11T06:50:01.975Z,50.30
2022-09-11T06:53:08.513Z,50.30
2022-09-11T06:56:15.671Z,50.30
2022-09-11T06:59:23.658Z,50.20
2022-09-11T07:02:25.635Z,50.00
2022-09-11T07:05:29.350Z,50.00
2022-09-11T07:08:31.368Z,50.20
2022-09-11T07:11:35.156Z,50.70
2022-09-11T07:14:38.472Z,50.20
2022-09-11T07:17:46.676Z,50.20
2022-09-11T07:20:49.349Z,50.30
2022-09-11T07:23:54.444Z,50.20
2022-09-11T07:26:56.622Z,50.20
2022-09-11T07:30:06.202Z,50.20
2022-09-11T07:33:12.395Z,50.10
2022-09-11T07:36:20.982Z,50.30
2022-09-11T07:39:25.529Z,50.10
2022-09-11T07:42:50.242Z,50.20
2022-09-11T07:45:53.742Z,50.10
2022-09-11T07:48:56.230Z,50.00
2022-09-11T07:51:59.292Z,50.10
2022-09-11T07:55:13.308Z,50.10
2022-09-11T07:58:15.407Z,50.00
2022-09-11T08:01:21.093Z,50.10
2022-09-11T08:04:23.210Z,50.10
2022-09-11T08:07:25.485Z,50.00
2022-09-11T08:10:28.377Z,50.10
2022-09-11T08:13:31.999Z,50.20
2022-09-11T08:16:36.031Z,50.20
2022-09-11T08:19:38.850Z,50.20
2022-09-11T08:22:41.995Z,50.30
2022-09-11T08:25:44.595Z,50.10
2022-09-11T08:28:46.394Z,50.10
2022-09-11T08:31:48.829Z,50.10
2022-09-11T08:34:51.601Z,50.10
2022-09-11T08:37:55.451Z,50.10
2022-09-11T08:41:07.776Z,50.20
2022-09-11T08:44:09.511Z,50.30
2022-09-11T08:47:19.096Z,50.30
2022-09-11T08:50:25.078Z,50.60
2022-09-11T08:53:32.439Z,50.70
2022-09-11T08:56:36.193Z,50.70
2022-09-11T08:59:59.679Z,50.60
2022-09-11T09:03:47.343Z,50.50
2022-09-11T09:07:09.056Z,50.40
2022-09-11T09:10:52.651Z,50.50
2022-09-11T09:14:20.400Z,50.40
2022-09-11T09:17:27.123Z,50.50
2022-09-11T09:20:33.689Z,50.50
2022-09-11T09:23:46.043Z,50.50
2022-09-11T09:26:52.926Z,50.50
2022-09-11T09:29:57.900Z,50.50
2022-09-11T09:33:22.180Z,50.50
2022-09-11T09:36:33.784Z,50.60
2022-09-11T09:39:37.203Z,50.60
2022-09-11T09:43:01.963Z,50.50
2022-09-11T09:46:09.467Z,50.50
2022-09-11T09:49:11.884Z,50.60
2022-09-11T09:52:24.286Z,50.70
2022-09-11T09:55:26.610Z,50.00
2022-09-11T09:58:34.426Z,50.20
2022-09-11T10:01:53.943Z,50.30
2022-09-11T10:05:16.795Z,50.30
2022-09-11T10:08:28.956Z,50.30
2022-09-11T10:11:31.242Z,50.40
2022-09-11T10:14:55.805Z,50.50
2022-09-11T10:18:32.313Z,50.50
2022-09-11T10:21:35.254Z,50.50
2022-09-11T10:24:36.962Z,50.60
2022-09-11T10:28:03.385Z,50.60
2022-09-11T10:31:05.578Z,50.50
2022-09-11T10:34:15.405Z,50.50
2022-09-11T10:37:35.384Z,50.50
2022-09-11T10:40:39.934Z,50.40
2022-09-11T10:44:13.891Z,50.40
2022-09-11T10:47:32.571Z,50.40
2022-09-11T10:50:34.846Z,50.30
2022-09-11T10:54:01.660Z,50.30
2022-09-11T10:57:18.488Z,50.30
2022-09-11T11:00:25.914Z,50.30
2022-09-11T11:03:28.452Z,50.30
2022-09-11T11:07:25.631Z,50.30
2022-09-11T11:11:04.741Z,50.30
2022-09-11T11:14:37.789Z,50.30
2022-09-11T11:17:54.982Z,50.30
2022-09-11T11:21:04.770Z,50.30
2022-09-11T11:24:17.640Z,50.30
2022-09-11T11:27:44.753Z,50.20
2022-09-11T11:31:20.406Z,50.30
2022-09-11T11:34:48.248Z,50.20
2022-09-11T11:37:55.607Z,50.20
2022-09-11T11:41:04.261Z,50.20
2022-09-11T11:44:10.550Z,50.10
2022-09-11T11:47:14.657Z,50.10
2022-09-11T11:50:37.491Z,50.20
2022-09-11T11:54:02.146Z,50.80
2022-09-11T11:57:11.310Z,50.30
2022-09-11T12:00:17.556Z,50.30
2022-09-11T12:03:38.667Z,50.40
2022-09-11T12:06:40.427Z,50.50
2022-09-11T12:09:49.279Z,50.40
2022-09-11T12:12:56.253Z,50.40
2022-09-11T12:16:21.245Z,50.30
2022-09-11T12:19:27.627Z,50.40
2022-09-11T12:22:34.568Z,50.30
2022-09-11T12:25:36.553Z,50.20
2022-09-11T12:28:38.260Z,50.20
2022-09-11T12:32:02.973Z,50.20
2022-09-11T12:35:20.080Z,50.20
2022-09-11T12:38:35.515Z,50.20
2022-09-11T12:41:37.725Z,49.90
2022-09-11T12:44:48.552Z,49.80
2022-09-11T12:47:51.184Z,49.80
2022-09-11T12:50:56.990Z,49.90
2022-09-11T12:54:11.750Z,50.00
2022-09-11T12:57:35.143Z,49.90
2022-09-11T13:00:43.663Z,50.00
2022-09-11T13:03:56.109Z,50.00
2022-09-11T13:06:58.941Z,50.00
2022-09-11T13:10:08.605Z,50.00
2022-09-11T13:13:35.210Z,50.00
2022-09-11T13:16:44.469Z,50.00
2022-09-11T13:19:46.261Z,49.90
2022-09-11T13:22:49.120Z,50.00
2022-09-11T13:25:51.166Z,49.90
2022-09-11T13:28:55.787Z,49.90
2022-09-11T13:31:59.477Z,50.10
2022-09-11T13:35:09.505Z,50.10
2022-09-11T13:38:23.137Z,50.00
2022-09-11T13:41:29.849Z,50.00
2022-09-11T13:44:44.237Z,50.00
2022-09-11T13:47:46.359Z,50.00
2022-09-11T13:50:50.666Z,49.90
2022-09-11T13:53:58.442Z,49.90
2022-09-11T13:57:00.138Z,50.00
2022-09-11T14:00:03.475Z,49.90
2022-09-11T14:03:22.842Z,50.00
2022-09-11T14:06:24.831Z,50.00
2022-09-11T14:09:26.685Z,50.20
2022-09-11T14:12:29.084Z,50.00
2022-09-11T14:15:33.677Z,50.00
2022-09-11T14:18:39.965Z,50.00
2022-09-11T14:21:47.952Z,50.10
2022-09-11T14:25:02.646Z,50.00
2022-09-11T14:28:04.414Z,50.10
2022-09-11T14:31:12.213Z,50.00
2022-09-11T14:34:27.912Z,50.00
2022-09-11T14:37:34.468Z,50.10
2022-09-11T14:40:36.612Z,50.10
2022-09-11T14:43:38.895Z,50.10
2022-09-11T14:46:40.694Z,50.10
2022-09-11T14:49:42.606Z,50.10
2022-09-11T14:52:44.313Z,50.40
2022-09-11T14:55:46.071Z,50.30
2022-09-11T14:58:48.641Z,50.20
2022-09-11T15:01:54.303Z,50.20
2022-09-11T15:04:58.155Z,50.30
2022-09-11T15:08:00.605Z,50.20
2022-09-11T15:11:02.428Z,50.20
2022-09-11T15:14:16.348Z,50.20
2022-09-11T15:17:24.172Z,50.10
2022-09-11T15:20:27.565Z,49.50
2022-09-11T15:23:29.313Z,49.30
2022-09-11T15:26:33.133Z,49.20
2022-09-11T15:29:34.853Z,49.00
2022-09-11T15:32:38.038Z,48.90
2022-09-11T15:35:39.777Z,49.00
2022-09-11T15:38:41.652Z,49.00
2022-09-11T15:41:44.399Z,49.40
2022-09-11T15:44:46.189Z,48.60
2022-09-11T15:47:47.953Z,48.80
2022-09-11T15:51:00.459Z,49.00
2022-09-11T15:54:03.044Z,48.80
2022-09-11T15:57:04.817Z,48.80
2022-09-11T16:00:07.409Z,49.00
2022-09-11T16:03:13.664Z,48.90
2022-09-11T16:06:15.390Z,48.80
2022-09-11T16:09:29.262Z,48.70
2022-09-11T16:12:31.024Z,48.70
2022-09-11T16:15:33.678Z,48.70
2022-09-11T16:18:42.470Z,48.90
2022-09-11T16:21:44.385Z,48.90
2022-09-11T16:24:46.183Z,49.10
2022-09-11T16:27:48.517Z,49.10
2022-09-11T16:30:53.942Z,49.20
2022-09-11T16:33:56.887Z,49.20
2022-09-11T16:36:59.227Z,49.20
2022-09-11T16:40:02.575Z,49.20
2022-09-11T16:43:07.696Z,49.20
2022-09-11T16:46:09.626Z,49.20
2022-09-11T16:49:17.036Z,49.20
2022-09-11T16:52:18.766Z,49.30
2022-09-11T16:55:21.274Z,49.20
2022-09-11T16:58:23.517Z,49.20
2022-09-11T17:01:27.682Z,49.20
2022-09-11T17:04:29.560Z,49.20
2022-09-11T17:07:31.906Z,49.30
2022-09-11T17:10:33.604Z,49.30
2022-09-11T17:13:35.884Z,49.30
2022-09-11T17:16:38.617Z,49.40
2022-09-11T17:19:40.363Z,49.30
2022-09-11T17:22:42.354Z,49.30
2022-09-11T17:25:45.562Z,49.40
2022-09-11T17:28:48.896Z,49.40
2022-09-11T17:32:05.079Z,49.30
2022-09-11T17:35:13.156Z,49.30
2022-09-11T17:38:14.927Z,49.50
2022-09-11T17:41:16.850Z,49.50
2022-09-11T17:44:18.611Z,49.70
2022-09-11T17:47:20.507Z,49.60
2022-09-11T17:50:22.373Z,49.50
2022-09-11T17:53:24.119Z,49.60
2022-09-11T17:56:30.625Z,49.60
2022-09-11T17:59:32.466Z,49.80
2022-09-11T18:02:34.201Z,49.70
2022-09-11T18:05:41.564Z,49.70
2022-09-11T18:08:43.847Z,49.90
2022-09-11T18:11:48.100Z,49.80
2022-09-11T18:14:50.063Z,49.90
2022-09-11T18:17:53.694Z,50.00
2022-09-11T18:20:55.456Z,50.00
2022-09-11T18:23:57.506Z,50.10
2022-09-11T18:27:01.051Z,50.10
2022-09-11T18:30:03.143Z,50.20
2022-09-11T18:33:08.904Z,50.20
2022-09-11T18:36:13.914Z,50.30
2022-09-11T18:39:17.900Z,50.40
2022-09-11T18:42:19.588Z,50.40
2022-09-11T18:45:21.538Z,50.40
2022-09-11T18:48:23.945Z,50.40
2022-09-11T18:51:27.053Z,50.40
2022-09-11T18:54:29.973Z,50.50
2022-09-11T18:57:36.332Z,50.50
2022-09-11T19:00:41.234Z,50.40
2022-09-11T19:03:44.104Z,50.40
2022-09-11T19:06:46.234Z,50.50
2022-09-11T19:09:49.329Z,50.40
2022-09-11T19:12:51.027Z,50.50
2022-09-11T19:16:00.345Z,50.50
2022-09-11T19:19:02.886Z,50.60
2022-09-11T19:22:04.641Z,50.60
2022-09-11T19:25:08.448Z,50.60
2022-09-11T19:28:11.021Z,50.60
2022-09-11T19:31:14.795Z,50.60
2022-09-11T19:34:16.837Z,50.60
2022-09-11T19:37:20.111Z,50.60
2022-09-11T19:40:21.788Z,50.70
2022-09-11T19:43:24.878Z,50.60
2022-09-11T19:46:27.660Z,50.70
2022-09-11T19:49:29.865Z,50.70
2022-09-11T19:52:33.177Z,50.70
2022-09-11T19:55:35.204Z,50.70
2022-09-11T19:58:38.798Z,50.70
2022-09-11T20:01:40.525Z,50.80
2022-09-11T20:04:42.275Z,50.70
2022-09-11T20:07:43.939Z,50.70
2022-09-11T20:10:46.839Z,50.70
2022-09-11T20:13:48.901Z,50.70
2022-09-11T20:16:50.683Z,50.80
2022-09-11T20:19:52.622Z,50.90
2022-09-11T20:22:57.158Z,50.90
2022-09-11T20:26:17.210Z,50.90
2022-09-11T20:29:19.230Z,50.90
2022-09-11T20:32:20.945Z,50.80
2022-09-11T20:35:22.661Z,50.80
2022-09-11T20:38:24.426Z,50.70
2022-09-11T20:41:29.599Z,50.70
2022-09-11T20:44:36.244Z,50.80
2022-09-11T20:47:38.692Z,50.60
2022-09-11T20:50:40.405Z,50.70
2022-09-11T20:53:45.542Z,50.70
2022-09-11T20:56:47.310Z,50.60
2022-09-11T20:59:49.890Z,50.50
2022-09-11T21:02:51.597Z,50.60
2022-09-11T21:05:55.091Z,50.60
2022-09-11T21:08:59.093Z,50.50
2022-09-11T21:12:00.815Z,50.50
2022-09-11T21:15:02.523Z,50.50
2022-09-11T21:18:04.445Z,50.40
2022-09-11T21:21:06.396Z,50.40
2022-09-11T21:24:11.759Z,50.40
2022-09-11T21:27:13.536Z,50.40
2022-09-11T21:30:15.408Z,50.40
2022-09-11T21:33:17.498Z,50.40
2022-09-11T21:36:19.236Z,50.30
2022-09-11T21:39:20.927Z,50.40
2022-09-11T21:42:22.655Z,50.40
2022-09-11T21:45:24.467Z,50.40
2022-09-11T21:48:26.271Z,50.40
2022-09-11T21:51:28.195Z,50.40
2022-09-11T21:54:32.169Z,50.40
2022-09-11T21:57:33.881Z,50.90
2022-09-11T22:00:42.054Z,50.30
2022-09-11T22:03:44.756Z,50.30
2022-09-11T22:06:46.526Z,50.40
2022-09-11T22:09:48.464Z,50.30
2022-09-11T22:12:50.772Z,50.30
2022-09-11T22:15:52.943Z,50.90
2022-09-11T22:18:55.166Z,50.30
2022-09-11T22:21:57.159Z,50.20
2022-09-11T22:24:58.890Z,50.30
2022-09-11T22:28:00.566Z,50.30
2022-09-11T22:31:10.478Z,50.20
2022-09-11T22:34:12.285Z,50.20
2022-09-11T22:37:13.984Z,50.20
2022-09-11T22:40:15.941Z,50.20
2022-09-11T22:43:17.734Z,50.20
2022-09-11T22:46:20.842Z,50.20
2022-09-11T22:49:22.707Z,50.10
2022-09-11T22:52:24.523Z,50.10
2022-09-11T22:55:26.212Z,50.10
2022-09-11T22:58:29.251Z,50.10
2022-09-11T23:01:31.867Z,50.10
2022-09-11T23:04:33.730Z,50.10
2022-09-11T23:07:35.481Z,50.00
2022-09-11T23:10:41.531Z,50.10
2022-09-11T23:13:43.865Z,50.00
2022-09-11T23:16:45.562Z,50.00
2022-09-11T23:19:47.986Z,50.00
2022-09-11T23:22:49.744Z,50.00
2022-09-11T23:25:52.215Z,50.00
2022-09-11T23:28:54.336Z,50.00
2022-09-11T23:31:56.634Z,50.00
2022-09-11T23:34:58.386Z,50.00
2022-09-11T23:38:00.731Z,50.00
2022-09-11T23:41:02.463Z,50.00
2022-09-11T23:44:05.297Z,49.90
2022-09-11T23:47:07.036Z,50.00
2022-09-11T23:50:09.519Z,50.00
2022-09-11T23:53:11.205Z,49.90
2022-09-11T23:56:16.081Z,50.00
2022-09-11T23:59:17.890Z,50.00
